createdAt,value
2023-05-09T00:03:59.707Z,101601.31
2023-05-09T00:08:58.547Z,101604.41
2023-05-09T00:13:57.485Z,101599.72
2023-05-09T00:18:58.160Z,101601.31
2023-05-09T00:23:59.152Z,101608.38
2023-05-09T00:28:57.870Z,101620.03
2023-05-09T00:33:56.602Z,101617.19
2023-05-09T00:38:55.737Z,101602.91
2023-05-09T00:43:56.051Z,101610.94
2023-05-09T00:48:54.921Z,101618.13
2023-05-09T00:53:53.764Z,101618.63
2023-05-09T00:58:53.861Z,101620.72
2023-05-09T01:03:54.683Z,101627.31
2023-05-09T01:09:00.517Z,101616.31
2023-05-09T01:14:08.804Z,101614.69
2023-05-09T01:19:26.967Z,101611.84
2023-05-09T01:24:52.432Z,101617.78
2023-05-09T01:29:58.193Z,101618.28
2023-05-09T01:34:58.243Z,101613.91
2023-05-09T01:40:01.438Z,101617.78
2023-05-09T01:45:02.054Z,101618.25
2023-05-09T01:50:03.031Z,101621.19
2023-05-09T01:55:03.547Z,101623.72
2023-05-09T02:00:04.602Z,101618.38
2023-05-09T02:05:13.220Z,101613.19
2023-05-09T02:10:13.284Z,101619.09
2023-05-09T02:15:13.605Z,101620.81
2023-05-09T02:20:13.517Z,101617.69
2023-05-09T02:25:16.310Z,101617.47
2023-05-09T02:30:23.564Z,101617.75
2023-05-09T02:35:24.085Z,101627.13
2023-05-09T02:40:23.875Z,101626.38
2023-05-09T02:45:24.153Z,101617.69
2023-05-09T02:50:23.031Z,101627.97
2023-05-09T02:55:22.017Z,101626.72
2023-05-09T03:00:22.295Z,101627.13
2023-05-09T03:05:22.458Z,101619.19
2023-05-09T03:10:21.765Z,101626.66
2023-05-09T03:15:21.563Z,101638.50
2023-05-09T03:20:22.674Z,101645.16
2023-05-09T03:25:22.469Z,101653.41
2023-05-09T03:30:21.505Z,101661.59
2023-05-09T03:35:23.321Z,101666.22
2023-05-09T03:40:22.598Z,101676.09
2023-05-09T03:45:30.092Z,101687.13
2023-05-09T03:50:30.955Z,101689.69
2023-05-09T03:55:31.595Z,101704.13
2023-05-09T04:00:30.745Z,101709.34
2023-05-09T04:05:39.875Z,101712.09
2023-05-09T04:10:42.933Z,101716.56
2023-05-09T04:15:41.798Z,101724.97
2023-05-09T04:20:42.236Z,101724.97
2023-05-09T04:25:41.812Z,101728.75
2023-05-09T04:30:40.900Z,101725.84
2023-05-09T04:35:41.368Z,101725.50
2023-05-09T04:40:40.463Z,101726.41
2023-05-09T04:45:39.481Z,101729.44
2023-05-09T04:50:38.654Z,101734.50
2023-05-09T04:55:39.013Z,101737.94
2023-05-09T05:00:37.887Z,101739.75
2023-05-09T05:05:38.575Z,101734.44
2023-05-09T05:10:38.938Z,101734.16
2023-05-09T05:15:42.165Z,101742.88
2023-05-09T05:20:41.982Z,101739.72
2023-05-09T05:25:42.438Z,101742.78
2023-05-09T05:30:41.627Z,101742.47
2023-05-09T05:35:40.858Z,101741.44
2023-05-09T05:40:40.995Z,101743.66
2023-05-09T05:45:40.781Z,101739.88
2023-05-09T05:50:42.607Z,101740.41
2023-05-09T05:55:45.970Z,101748.09
2023-05-09T06:00:45.917Z,101749.50
2023-05-09T06:05:45.946Z,101746.88
2023-05-09T06:10:46.626Z,101745.50
2023-05-09T06:15:45.693Z,101751.91
2023-05-09T06:20:44.529Z,101745.22
2023-05-09T06:25:43.521Z,101746.56
2023-05-09T06:30:44.337Z,101745.66
2023-05-09T06:35:43.042Z,101752.47
2023-05-09T06:40:41.984Z,101753.47
2023-05-09T06:45:40.878Z,101755.97
2023-05-09T06:55:40.114Z,101753.63
2023-05-09T07:00:39.055Z,101754.06
2023-05-09T07:05:37.843Z,101759.91
2023-05-09T07:10:38.792Z,101752.88
2023-05-09T07:15:41.975Z,101755.25
2023-05-09T07:20:41.616Z,101765.09
2023-05-09T07:25:41.938Z,101754.41
2023-05-09T07:30:40.753Z,101761.53
2023-05-09T07:35:39.898Z,101766.50
2023-05-09T07:40:38.870Z,101764.84
2023-05-09T07:45:39.188Z,101755.19
2023-05-09T07:50:37.945Z,101752.41
2023-05-09T07:55:36.673Z,101757.84
2023-05-09T08:00:38.166Z,101757.03
2023-05-09T08:05:38.766Z,101750.75
2023-05-09T08:10:37.801Z,101756.88
2023-05-09T08:15:36.580Z,101752.31
2023-05-09T08:20:36.352Z,101758.34
2023-05-09T08:25:36.433Z,101747.69
2023-05-09T08:30:35.190Z,101746.13
2023-05-09T08:35:33.864Z,101752.13
2023-05-09T08:40:38.655Z,101749.94
2023-05-09T08:45:43.993Z,101744.81
2023-05-09T08:50:43.386Z,101738.13
2023-05-09T08:55:43.842Z,101732.38
2023-05-09T09:00:43.014Z,101723.22
2023-05-09T09:05:44.437Z,101729.13
2023-05-09T09:10:47.551Z,101721.25
2023-05-09T09:15:48.186Z,101726.38
2023-05-09T09:20:49.501Z,101710.47
2023-05-09T09:25:50.056Z,101727.31
2023-05-09T09:30:49.343Z,101730.41
2023-05-09T09:35:49.443Z,101736.75
2023-05-09T09:40:55.532Z,101710.28
2023-05-09T09:45:55.898Z,101703.75
2023-05-09T09:50:56.877Z,101701.78
2023-05-09T09:55:57.056Z,101705.47
2023-05-09T10:01:06.793Z,101689.78
2023-05-09T10:06:06.071Z,101691.50
2023-05-09T10:11:06.325Z,101684.56
2023-05-09T10:16:06.807Z,101675.44
2023-05-09T10:21:09.237Z,101680.44
2023-05-09T10:26:16.219Z,101686.38
2023-05-09T10:31:17.877Z,101692.44
2023-05-09T10:36:18.978Z,101686.25
2023-05-09T10:41:19.897Z,101683.00
2023-05-09T10:46:19.154Z,101687.72
2023-05-09T10:51:18.918Z,101682.63
2023-05-09T10:56:27.159Z,101680.88
2023-05-09T11:01:31.662Z,101674.28
2023-05-09T11:06:46.654Z,101674.69
2023-05-09T11:12:08.353Z,101682.78
2023-05-09T11:17:08.275Z,101682.94
2023-05-09T11:22:15.123Z,101673.06
2023-05-09T11:27:21.042Z,101671.03
2023-05-09T11:32:20.243Z,101671.59
2023-05-09T11:37:19.293Z,101668.75
2023-05-09T11:42:19.706Z,101663.63
2023-05-09T11:47:19.630Z,101664.09
2023-05-09T11:52:19.685Z,101651.59
2023-05-09T11:57:19.811Z,101648.09
2023-05-09T12:02:18.593Z,101664.81
2023-05-09T12:07:19.105Z,101647.91
2023-05-09T12:12:21.816Z,101649.53
2023-05-09T12:17:24.129Z,101639.72
2023-05-09T12:22:23.244Z,101634.00
2023-05-09T12:27:23.640Z,101616.19
2023-05-09T12:32:22.671Z,101605.19
2023-05-09T12:37:21.599Z,101603.78
2023-05-09T12:42:20.321Z,101590.63
2023-05-09T12:47:20.457Z,101588.06
2023-05-09T12:52:21.720Z,101591.13
2023-05-09T12:57:24.346Z,101597.16
2023-05-09T13:02:26.903Z,101607.41
2023-05-09T13:07:26.124Z,101600.41
2023-05-09T13:12:25.313Z,101601.47
2023-05-09T13:17:28.701Z,101595.41
2023-05-09T13:22:28.144Z,101597.34
2023-05-09T13:27:28.115Z,101585.56
2023-05-09T13:32:28.767Z,101589.06
2023-05-09T13:37:28.427Z,101587.91
2023-05-09T13:42:27.660Z,101581.47
2023-05-09T13:47:28.205Z,101583.94
2023-05-09T13:52:27.031Z,101586.25
2023-05-09T13:57:26.466Z,101590.94
2023-05-09T14:02:30.248Z,101593.72
2023-05-09T14:07:29.040Z,101585.44
2023-05-09T14:12:28.699Z,101597.63
2023-05-09T14:17:27.482Z,101574.59
2023-05-09T14:22:28.333Z,101587.09
2023-05-09T14:27:27.512Z,101590.63
2023-05-09T14:32:26.633Z,101596.16
2023-05-09T14:37:25.667Z,101598.66
2023-05-09T14:42:27.101Z,101597.88
2023-05-09T14:47:26.664Z,101595.81
2023-05-09T14:52:25.520Z,101592.28
2023-05-09T14:57:25.830Z,101591.72
2023-05-09T15:02:26.624Z,101593.31
2023-05-09T15:07:25.528Z,101587.94
2023-05-09T15:12:25.718Z,101597.16
2023-05-09T15:17:24.474Z,101594.97
2023-05-09T15:22:23.745Z,101595.81
2023-05-09T15:27:22.660Z,101596.22
2023-05-09T15:32:23.107Z,101595.47
2023-05-09T15:37:21.837Z,101592.53
2023-05-09T15:42:20.930Z,101584.78
2023-05-09T15:47:19.885Z,101587.75
2023-05-09T15:52:20.305Z,101585.94
2023-05-09T15:57:19.017Z,101591.25
2023-05-09T16:02:17.807Z,101581.00
2023-05-09T16:07:16.632Z,101585.94
2023-05-09T16:12:16.832Z,101594.09
2023-05-09T16:17:15.567Z,101593.34
2023-05-09T16:22:14.307Z,101598.56
2023-05-09T16:27:14.512Z,101598.38
2023-05-09T16:32:14.700Z,101607.38
2023-05-09T16:37:13.484Z,101597.34
2023-05-09T16:42:12.476Z,101592.56
2023-05-09T16:47:11.443Z,101602.97
2023-05-09T16:52:11.603Z,101605.69
2023-05-09T16:57:10.382Z,101611.28
2023-05-09T17:02:09.353Z,101616.19
2023-05-09T17:07:08.501Z,101620.94
2023-05-09T17:12:14.850Z,101624.06
2023-05-09T17:17:14.839Z,101627.78
2023-05-09T17:22:13.594Z,101632.38
2023-05-09T17:27:13.731Z,101639.56
2023-05-09T17:32:16.407Z,101635.53
2023-05-09T17:37:15.006Z,101640.47
2023-05-09T17:42:15.135Z,101642.53
2023-05-09T17:47:14.374Z,101641.97
2023-05-09T17:52:13.283Z,101649.28
2023-05-09T17:57:11.990Z,101655.53
2023-05-09T18:02:12.301Z,101656.50
2023-05-09T18:07:11.256Z,101667.50
2023-05-09T18:12:11.683Z,101674.91
2023-05-09T18:17:11.899Z,101679.78
2023-05-09T18:22:10.739Z,101680.34
2023-05-09T18:27:09.505Z,101679.56
2023-05-09T18:32:09.084Z,101684.69
2023-05-09T18:37:11.620Z,101692.31
2023-05-09T18:42:10.491Z,101687.75
2023-05-09T18:47:09.553Z,101690.38
2023-05-09T18:52:09.839Z,101692.97
2023-05-09T18:57:10.089Z,101696.31
2023-05-09T19:02:09.911Z,101698.88
2023-05-09T19:07:13.368Z,101701.38
2023-05-09T19:12:16.537Z,101699.47
2023-05-09T19:17:15.714Z,101705.16
2023-05-09T19:22:16.681Z,101696.97
2023-05-09T19:27:15.730Z,101700.00
2023-05-09T19:32:15.187Z,101692.25
2023-05-09T19:37:16.192Z,101696.78
2023-05-09T19:42:15.140Z,101695.22
2023-05-09T19:47:14.174Z,101692.72
2023-05-09T19:52:17.330Z,101685.16
2023-05-09T19:57:17.092Z,101688.03
2023-05-09T20:02:16.361Z,101688.22
2023-05-09T20:07:22.012Z,101688.69
2023-05-09T20:12:21.621Z,101691.28
2023-05-09T20:17:20.535Z,101694.03
2023-05-09T20:22:21.131Z,101681.75
2023-05-09T20:27:20.510Z,101687.03
2023-05-09T20:32:19.206Z,101681.19
2023-05-09T20:37:18.051Z,101670.28
2023-05-09T20:42:18.290Z,101677.63
2023-05-09T20:47:17.595Z,101676.31
2023-05-09T20:52:16.315Z,101669.44
2023-05-09T20:57:15.046Z,101669.28
2023-05-09T21:02:15.261Z,101659.00
2023-05-09T21:07:14.068Z,101668.75
2023-05-09T21:12:12.934Z,101666.25
2023-05-09T21:17:11.955Z,101662.81
2023-05-09T21:22:12.240Z,101668.22
2023-05-09T21:27:10.944Z,101663.28
2023-05-09T21:32:09.670Z,101665.22
2023-05-09T21:37:08.381Z,101662.75
2023-05-09T21:42:08.918Z,101665.59
2023-05-09T21:47:07.853Z,101662.44
2023-05-09T21:52:06.565Z,101651.53
2023-05-09T21:57:05.253Z,101650.84
2023-05-09T22:02:07.003Z,101653.91
2023-05-09T22:07:05.849Z,101657.56
2023-05-09T22:12:04.842Z,101653.28
2023-05-09T22:17:07.135Z,101642.91
2023-05-09T22:22:07.357Z,101634.22
2023-05-09T22:27:06.519Z,101639.75
2023-05-09T22:32:07.771Z,101636.91
2023-05-09T22:37:07.907Z,101633.63
2023-05-09T22:42:09.431Z,101627.66
2023-05-09T22:47:09.036Z,101630.31
2023-05-09T22:52:09.991Z,101628.47
2023-05-09T22:57:08.781Z,101623.19
2023-05-09T23:02:07.517Z,101616.19
2023-05-09T23:07:06.365Z,101617.91
2023-05-09T23:12:07.174Z,101613.81
2023-05-09T23:17:06.039Z,101603.06
2023-05-09T23:22:04.763Z,101596.34
2023-05-09T23:27:03.768Z,101592.97
2023-05-09T23:32:03.909Z,101589.59
2023-05-09T23:37:02.542Z,101597.75
2023-05-09T23:42:01.318Z,101590.00
2023-05-09T23:47:01.884Z,101584.94
2023-05-09T23:52:02.167Z,101587.56
2023-05-09T23:57:01.050Z,101580.66
